X  Close Metar Aviation Weather Data     KMYR Myrtle Beach International Airport
Temperature
54°F Temperature
48°F Dewpoint
82% Humidity



Wind
8 MPH
13 KM/H
4 M/S
7 KTS



290°
WNW
Current Conditions

Clear Clear
Pressure 1016.22 (hPa) - 30.01 (inHg)
Visibility 9.9 (mile) - 16 (km)
Airport
Airport-code KMYR

Location: Myrtle Beach International Airport
Distance: 31 (mi)

Metar:
KMYR 030956Z AUTO 29007KT 10SM CLR 12/09 A3001 RMK AO2 SLP161 T01220089

Time: 12-03-2021 4:56 am EST